Time;durP1;ratioP1;P1;durP2;ratioP2;P2;SDS_P1;SDS_P2;PMS_P1;PMS_P2;Temp;Humidity;BMP_temperature;BMP_pressure;BME280_temperature;BME280_humidity;BME280_pressure;Samples;Min_cycle;Max_cycle;Signal;HPM_P1;HPM_P2
2022/08/12 00:44:58;;;;;;;2.65;2.03;;;18.60;54.30;;;17.77;57.46;96191.19;4947758;28;20047;-65
2022/08/12 00:47:24;;;;;;;2.55;1.80;;;18.50;54.60;;;17.74;57.61;96190.59;4963717;28;20067;-65
2022/08/12 00:49:50;;;;;;;3.22;1.88;;;18.50;54.70;;;17.72;57.52;96191.88;4955115;28;20035;-65
2022/08/12 00:52:16;;;;;;;2.47;1.77;;;18.50;54.70;;;17.70;57.69;96193.97;4929686;28;20043;-65
2022/08/12 00:54:48;;;;;;;4.03;1.90;;;18.50;54.90;;;17.67;58.97;96194.41;4931864;28;20036;-65
2022/08/12 00:57:26;;;;;;;4.65;2.08;;;18.50;54.80;;;17.63;59.07;96190.56;4963327;28;20122;-65
2022/08/12 00:59:54;;;;;;;2.35;1.83;;;18.40;54.90;;;17.59;57.87;96190.22;4964574;28;20407;-66
2022/08/12 01:02:25;;;;;;;5.43;2.25;;;18.40;55.20;;;17.57;59.08;96188.81;4948150;28;20976;-65
2022/08/12 01:13:12;;;;;;;3.42;1.85;;;18.30;55.70;;;17.44;59.58;96185.34;4934562;28;20585;-65
2022/08/12 01:15:38;;;;;;;4.60;1.90;;;18.20;56.00;;;17.39;59.66;96179.09;4918236;28;20054;-65
2022/08/12 01:18:06;;;;;;;2.42;2.00;;;18.10;56.10;;;17.34;59.52;96194.94;4948084;28;20566;-65
2022/08/12 01:21:02;;;;;;;3.28;2.30;;;18.10;56.20;;;17.27;60.71;96191.56;4946708;28;20061;-65
2022/08/12 01:24:03;;;;;;;3.55;2.30;;;18.10;56.40;;;17.21;61.01;96195.16;4948223;28;20047;-64
2022/08/12 01:26:29;;;;;;;3.25;2.13;;;18.00;56.40;;;17.17;59.93;96185.97;4932847;28;20411;-65
2022/08/12 01:28:56;;;;;;;3.65;1.98;;;17.90;56.60;;;17.14;59.88;96188.06;4944310;28;20040;-65
2022/08/12 01:31:21;;;;;;;3.40;2.20;;;17.90;56.90;;;17.12;60.14;96187.47;4947500;28;20035;-66
2022/08/12 01:34:09;;;;;;;3.08;2.08;;;17.80;56.90;;;17.09;61.80;96193.25;4966928;28;20050;-65
2022/08/12 01:36:54;;;;;;;5.70;2.30;;;17.90;57.10;;;17.06;62.05;96188.41;4946988;28;20055;-65
2022/08/12 01:39:19;;;;;;;3.17;2.28;;;17.80;57.20;;;17.01;60.67;96188.28;4960876;28;20092;-65
2022/08/12 01:41:52;;;;;;;3.30;2.05;;;17.80;57.40;;;16.95;61.84;96186.50;4916043;29;20067;-65
2022/08/12 01:44:18;;;;;;;4.30;2.22;;;17.70;57.50;;;16.91;61.03;96185.34;4946865;28;20471;-66
2022/08/12 01:47:17;;;;;;;3.33;2.08;;;17.70;57.70;;;16.90;62.04;96178.41;4948125;28;20059;-65
2022/08/12 01:49:58;;;;;;;2.75;1.95;;;17.60;57.70;;;16.84;62.52;96180.13;4963939;28;20036;-65
2022/08/12 01:52:47;;;;;;;3.28;2.15;;;17.60;57.60;;;16.82;61.97;96176.09;4963528;28;20038;-65
2022/08/12 01:55:13;;;;;;;3.78;2.25;;;17.60;57.70;;;16.78;61.55;96174.91;4948229;28;20193;-64
2022/08/12 01:57:47;;;;;;;3.65;2.30;;;17.50;57.70;;;16.78;62.12;96180.22;4934007;28;20035;-65
2022/08/12 02:00:15;;;;;;;3.03;2.20;;;17.60;57.90;;;16.74;61.08;96184.34;4951384;28;20028;-65
2022/08/12 02:03:13;;;;;;;3.92;2.03;;;17.60;57.60;;;16.74;62.11;96169.22;4936301;29;20042;-65
2022/08/12 02:12:12;;;;;;;6.30;2.20;;;17.50;57.70;;;16.65;62.66;96172.41;4955713;28;20364;-65
2022/08/12 02:15:11;;;;;;;3.17;2.08;;;17.50;57.90;;;16.64;62.92;96173.44;4967571;28;20118;-65
2022/08/12 02:18:03;;;;;;;2.80;2.00;;;17.50;58.00;;;16.60;62.97;96169.63;4961399;28;20094;-65
2022/08/12 02:20:37;;;;;;;4.20;2.00;;;17.50;58.10;;;16.59;62.79;96170.66;4965781;28;20523;-66
2022/08/12 02:23:04;;;;;;;3.53;2.38;;;17.50;58.30;;;16.57;62.30;96168.22;4962114;28;20039;-65
2022/08/12 02:25:37;;;;;;;3.38;2.50;;;17.50;58.30;;;16.58;63.31;96158.41;4918952;28;20039;-65
2022/08/12 02:28:03;;;;;;;3.80;2.42;;;17.50;58.30;;;16.55;62.90;96154.34;4967610;28;20050;-65
2022/08/12 02:30:31;;;;;;;5.68;3.30;;;17.40;58.10;;;16.54;62.51;96152.75;4971586;28;20188;-65
2022/08/12 02:32:59;;;;;;;5.68;3.20;;;17.40;58.10;;;16.54;62.76;96152.75;4936138;28;20027;-65
2022/08/12 02:35:29;;;;;;;6.78;3.78;;;17.50;58.20;;;16.56;62.56;96155.16;4934197;28;20118;-65
2022/08/12 02:37:58;;;;;;;7.90;2.95;;;17.50;58.20;;;16.55;63.08;96157.00;4934296;28;20031;-64
2022/08/12 02:40:25;;;;;;;5.88;4.13;;;17.50;58.50;;;16.53;62.55;96151.94;4952116;28;20074;-65
2022/08/12 02:42:59;;;;;;;4.45;2.97;;;17.50;58.60;;;16.51;63.44;96147.84;4934452;28;20114;-65
2022/08/12 02:45:39;;;;;;;4.05;2.55;;;17.40;58.60;;;16.47;63.96;96146.69;4948958;28;20047;-65
2022/08/12 02:48:09;;;;;;;5.55;2.40;;;17.30;58.90;;;16.45;64.44;96154.88;4948557;28;20496;-65
2022/08/12 02:50:39;;;;;;;5.20;3.55;;;17.40;59.00;;;16.41;63.92;96148.41;4952450;28;20054;-65
2022/08/12 02:53:05;;;;;;;3.93;3.17;;;17.30;59.10;;;16.40;63.15;96157.41;4950195;28;20035;-65
2022/08/12 02:55:34;;;;;;;2.72;2.40;;;17.30;59.20;;;16.39;63.72;96154.97;4918293;28;20294;-65
2022/08/12 02:58:06;;;;;;;6.00;2.70;;;17.30;59.30;;;16.35;64.77;96157.28;4962818;28;20034;-65
2022/08/12 03:00:32;;;;;;;5.00;2.72;;;17.30;59.20;;;16.31;64.48;96158.75;4964637;28;20422;-65
2022/08/12 03:02:59;;;;;;;8.45;4.72;;;17.20;59.40;;;16.30;64.03;96156.31;4950011;28;20032;-64
2022/08/12 03:05:25;;;;;;;5.30;3.13;;;17.20;59.50;;;16.27;64.25;96152.25;4946985;28;20039;-65
2022/08/12 03:07:52;;;;;;;5.20;2.28;;;17.20;59.50;;;16.23;64.24;96151.06;4931623;28;20062;-65
2022/08/12 03:10:23;;;;;;;5.20;2.90;;;17.10;59.70;;;16.22;64.65;96152.09;4952318;28;20028;-65
2022/08/12 03:12:52;;;;;;;5.03;3.45;;;17.10;59.80;;;16.18;64.26;96150.94;4964017;28;20031;-64
2022/08/12 03:15:21;;;;;;;4.05;3.03;;;17.10;59.90;;;16.15;64.68;96146.09;4964585;28;20061;-65
2022/08/12 03:18:08;;;;;;;3.70;3.05;;;17.00;59.90;;;16.14;65.99;96155.88;4964269;28;20495;-66
2022/08/12 03:20:39;;;;;;;3.45;2.90;;;17.00;59.80;;;16.12;65.04;96146.53;4964805;28;20035;-65
2022/08/12 03:23:05;;;;;;;3.08;2.75;;;17.00;59.80;;;16.11;64.59;96147.56;4949811;28;20031;-65
2022/08/12 03:25:34;;;;;;;5.25;2.40;;;17.00;60.00;;;16.09;64.89;96145.13;4917877;28;20070;-65
2022/08/12 03:28:00;;;;;;;3.20;2.20;;;17.00;60.10;;;16.10;64.84;96145.94;4931540;28;20079;-65
2022/08/12 03:30:31;;;;;;;6.15;2.70;;;17.00;59.90;;;16.07;65.73;96147.19;4949116;28;20040;-65
2022/08/12 03:32:58;;;;;;;2.58;2.00;;;17.00;60.00;;;16.06;65.41;96147.41;4950955;28;20027;-65
2022/08/12 03:35:26;;;;;;;5.30;2.42;;;17.00;60.10;;;16.04;65.26;96155.56;4948170;28;20411;-67
2022/08/12 03:37:57;;;;;;;3.50;2.53;;;17.00;60.10;;;16.03;65.11;96153.16;4940623;28;20048;-67
2022/08/12 04:00:23;;;;;;;4.50;2.70;;;16.90;60.50;;;15.89;65.67;96148.00;4931542;28;20034;-66
2022/08/12 04:05:42;;;;;;;4.55;2.22;;;16.80;60.90;;;15.85;66.61;96153.97;4937932;28;20078;-67
2022/08/12 04:08:09;;;;;;;5.80;2.80;;;16.80;60.90;;;15.83;65.67;96148.88;4948580;28;20066;-67
2022/08/12 04:13:22;;;;;;;4.18;2.38;;;16.60;61.00;;;15.73;65.98;96148.56;4933689;28;20037;-67
2022/08/12 04:15:48;;;;;;;4.95;2.78;;;16.60;61.10;;;15.68;66.23;96143.13;4947927;28;20043;-66
2022/08/12 04:18:14;;;;;;;3.97;2.80;;;16.60;61.30;;;15.64;67.24;96149.09;4947255;28;20111;-66
2022/08/12 04:20:43;;;;;;;3.13;2.42;;;16.50;61.50;;;15.63;67.83;96152.78;4963026;28;20070;-66
2022/08/12 04:23:14;;;;;;;4.25;2.50;;;16.50;61.60;;;15.60;67.19;96151.34;4947485;28;20039;-65
2022/08/12 04:25:41;;;;;;;3.85;2.60;;;16.50;61.70;;;15.57;67.55;96151.75;4917549;28;20157;-67
2022/08/12 04:28:07;;;;;;;5.32;2.38;;;16.60;61.70;;;15.55;66.47;96154.63;4945870;28;20030;-66
2022/08/12 04:30:33;;;;;;;3.85;2.50;;;16.50;61.80;;;15.54;68.21;96157.50;4929846;28;20035;-66
2022/08/12 04:32:59;;;;;;;4.80;2.50;;;16.50;62.10;;;15.50;68.18;96151.03;4922044;28;20067;-66
2022/08/12 04:35:25;;;;;;;4.07;2.55;;;16.50;62.30;;;15.50;67.94;96156.31;4946679;28;20055;-66
2022/08/12 04:37:55;;;;;;;5.63;2.40;;;16.50;62.50;;;15.48;69.54;96153.09;4946377;28;20117;-66
2022/08/12 04:40:25;;;;;;;5.32;2.53;;;16.40;62.70;;;15.46;69.50;96155.13;4948512;28;20031;-66
2022/08/12 04:42:51;;;;;;;4.97;2.77;;;16.40;63.00;;;15.45;68.73;96158.81;4933688;28;20030;-68
2022/08/12 04:45:18;;;;;;;5.63;2.38;;;16.50;63.10;;;15.45;69.82;96162.28;4947895;28;20436;-66
2022/08/12 04:47:44;;;;;;;5.72;2.63;;;16.50;63.10;;;15.47;70.05;96156.75;4945355;28;20050;-70
2022/08/12 04:50:14;;;;;;;3.78;2.45;;;16.50;63.40;;;15.47;70.26;96156.75;4948485;28;20031;-68
2022/08/12 04:52:40;;;;;;;4.40;2.80;;;16.50;63.50;;;15.47;70.34;96151.47;4933088;28;20035;-68
2022/08/12 04:55:06;;;;;;;3.60;2.58;;;16.60;63.50;;;15.48;70.99;96163.69;4947940;28;20023;-67
2022/08/12 04:57:32;;;;;;;4.45;2.60;;;16.60;63.60;;;15.51;70.05;96163.25;4958998;28;20027;-66
2022/08/12 04:59:58;;;;;;;5.80;2.38;;;16.60;63.80;;;15.52;70.61;96170.16;4917869;28;20043;-66
2022/08/12 05:02:25;;;;;;;4.40;2.80;;;16.60;64.00;;;15.56;70.35;96166.03;4946365;28;20039;-66
2022/08/12 05:04:52;;;;;;;7.10;2.78;;;16.70;63.90;;;15.59;70.43;96173.59;4916403;28;20038;-62
2022/08/12 05:07:19;;;;;;;5.97;2.75;;;16.70;63.90;;;15.61;71.66;96168.88;4957547;28;20058;-70
2022/08/12 05:09:44;;;;;;;4.90;2.92;;;16.80;64.00;;;15.64;71.26;96168.47;4943811;28;20102;-71
2022/08/12 05:12:11;;;;;;;3.28;2.50;;;16.70;63.90;;;15.69;70.97;96165.97;4964709;28;20049;-72
2022/08/12 05:14:38;;;;;;;5.72;2.60;;;16.90;64.10;;;15.74;71.17;96166.13;4931801;28;20046;-73
2022/08/12 05:17:04;;;;;;;4.28;2.53;;;16.90;63.50;;;15.78;71.62;96169.13;4928281;28;20039;-67
2022/08/12 05:19:30;;;;;;;5.75;2.72;;;16.90;63.90;;;15.83;71.44;96167.44;4931676;28;20039;-69
2022/08/12 05:21:56;;;;;;;3.38;2.33;;;17.00;63.60;;;15.87;71.31;96173.94;4948178;28;20059;-72
2022/08/12 05:24:21;;;;;;;3.58;2.35;;;17.10;63.90;;;15.93;71.19;96172.25;4947925;28;20467;-67
2022/08/12 05:26:48;;;;;;;3.40;2.53;;;17.10;63.30;;;15.99;71.43;96170.53;4929280;28;20066;-66
2022/08/12 05:29:15;;;;;;;4.75;2.20;;;17.20;63.30;;;16.07;72.06;96170.25;4966621;28;20051;-72
2022/08/12 05:31:41;;;;;;;5.60;2.60;;;17.40;63.50;;;16.15;71.68;96177.94;4935597;28;20554;-72
2022/08/12 05:34:10;;;;;;;6.35;2.33;;;17.50;63.30;;;16.23;71.53;96182.94;4951772;28;20035;-67
2022/08/12 05:36:36;;;;;;;5.00;2.10;;;17.60;62.70;;;16.33;70.98;96179.75;4933899;28;20027;-68
2022/08/12 05:39:01;;;;;;;3.47;2.28;;;17.60;62.50;;;16.42;71.45;96187.19;4933258;28;20085;-70
2022/08/12 05:41:30;;;;;;;4.60;2.17;;;17.80;62.80;;;16.52;70.53;96182.19;4949988;28;20392;-61
2022/08/12 05:44:06;;;;;;;6.55;2.25;;;18.00;61.30;;;16.68;69.77;96185.25;4966248;28;20054;-69
2022/08/12 05:46:33;;;;;;;3.78;2.17;;;18.10;60.40;;;16.80;69.64;96189.59;4950015;28;20050;-72
2022/08/12 05:49:01;;;;;;;4.65;2.28;;;18.30;59.70;;;16.92;69.19;96180.84;4934589;28;20043;-71
2022/08/12 05:51:29;;;;;;;4.90;2.10;;;18.50;60.10;;;17.08;69.35;96180.19;4920873;29;20514;-68
2022/08/12 05:53:55;;;;;;;2.70;1.95;;;18.70;58.90;;;17.24;67.29;96184.06;4920718;29;20031;-68
2022/08/12 05:56:26;;;;;;;3.88;2.15;;;18.90;56.20;;;17.40;66.52;96173.53;4948967;28;20074;-70
2022/08/12 05:58:52;;;;;;;3.33;2.15;;;19.10;56.40;;;17.55;65.83;96175.75;4934058;28;21838;-69
2022/08/12 06:01:19;;;;;;;2.72;1.85;;;19.30;55.50;;;17.71;64.53;96177.75;4951180;28;20055;-71
2022/08/12 06:03:45;;;;;;;5.38;2.10;;;19.50;54.50;;;17.87;64.57;96178.91;4923194;28;20059;-73
2022/08/12 06:06:12;;;;;;;2.80;1.60;;;19.60;53.80;;;18.03;63.81;96178.19;4921221;29;20051;-72
2022/08/12 06:08:38;;;;;;;5.30;2.13;;;19.80;53.00;;;18.18;62.72;96172.41;4914240;28;20035;-69
2022/08/12 06:11:04;;;;;;;3.05;1.55;;;20.10;52.90;;;18.36;62.60;96179.41;4949192;28;20045;-74
2022/08/12 06:13:33;;;;;;;3.10;1.80;;;20.20;52.30;;;18.52;61.52;96185.84;4951334;28;20054;-72
2022/08/12 06:15:59;;;;;;;5.90;2.17;;;20.40;51.50;;;18.69;61.77;96183.28;4950074;28;20119;-68
2022/08/12 06:18:25;;;;;;;3.95;1.88;;;20.50;50.90;;;18.84;60.30;96178.22;4950447;28;20070;-68
2022/08/12 06:20:57;;;;;;;3.65;1.90;;;20.70;50.40;;;19.03;60.12;96182.31;4917461;28;20063;-70
2022/08/12 06:23:27;;;;;;;4.60;1.95;;;20.90;49.70;;;19.22;57.93;96180.22;4919273;28;20163;-71
2022/08/12 06:25:56;;;;;;;3.67;1.90;;;21.10;48.70;;;19.38;57.94;96184.75;4918274;28;20058;-68
2022/08/12 06:28:22;;;;;;;2.58;1.90;;;21.20;48.70;;;19.52;57.75;96174.59;4945434;28;20032;-67
2022/08/12 06:30:49;;;;;;;2.95;1.70;;;21.30;49.20;;;19.66;57.15;96175.88;4934318;28;20103;-72
2022/08/12 06:33:15;;;;;;;3.22;1.70;;;21.30;48.60;;;19.78;57.27;96178.47;4949829;28;20115;-71
2022/08/12 06:35:41;;;;;;;3.83;1.73;;;21.40;48.70;;;19.87;56.41;96168.97;4933522;28;20094;-69
2022/08/12 06:38:15;;;;;;;4.30;2.22;;;21.50;48.30;;;19.96;54.63;96180.06;4949308;28;20050;-71
2022/08/12 06:43:27;;;;;;;5.40;2.38;;;21.60;47.90;;;20.09;55.43;96185.84;4936415;28;20050;-69
2022/08/12 06:45:56;;;;;;;4.85;2.28;;;21.70;48.30;;;20.18;55.32;96183.59;4949595;28;20036;-71
2022/08/12 06:48:26;;;;;;;4.35;1.85;;;21.80;47.90;;;20.27;55.15;96186.63;4948159;28;20177;-69
2022/08/12 06:50:55;;;;;;;5.30;2.08;;;21.90;47.60;;;20.32;55.07;96181.34;4931456;28;20035;-72
2022/08/12 06:53:22;;;;;;;4.32;2.15;;;22.00;48.40;;;20.38;55.52;96183.84;4948923;28;20510;-70
2022/08/12 06:55:48;;;;;;;6.20;2.88;;;22.10;47.70;;;20.47;54.55;96181.56;4931096;29;20051;-69
2022/08/12 06:58:15;;;;;;;3.13;1.83;;;22.10;47.30;;;20.56;55.05;96190.75;4933696;29;20050;-68
2022/08/12 07:00:45;;;;;;;4.32;2.25;;;22.30;47.80;;;20.64;54.72;96187.66;4900028;29;20388;-71
2022/08/12 07:03:20;;;;;;;2.70;2.00;;;22.30;46.70;;;20.73;54.67;96188.81;4934146;28;20878;-71
2022/08/12 07:05:46;;;;;;;3.63;1.88;;;22.50;46.60;;;20.84;53.63;96186.25;4935826;28;20047;-72
2022/08/12 07:08:12;;;;;;;5.05;1.90;;;22.60;46.20;;;20.92;53.90;96183.13;4949262;28;20511;-71
2022/08/12 07:10:47;;;;;;;2.85;1.50;;;22.70;46.50;;;21.01;53.22;96178.94;4917204;28;20042;-73
2022/08/12 07:13:13;;;;;;;5.70;2.05;;;22.80;45.80;;;21.09;53.95;96178.50;4946747;28;20851;-74
2022/08/12 07:15:42;;;;;;;3.17;1.77;;;22.90;45.80;;;21.20;53.13;96168.69;4932899;28;20107;-73
2022/08/12 07:18:10;;;;;;;5.03;1.90;;;23.10;45.20;;;21.30;52.25;96174.16;4927349;28;20400;-74
2022/08/12 07:20:40;;;;;;;4.75;1.98;;;23.10;44.40;;;21.42;51.67;96171.31;4946564;28;20035;-69
2022/08/12 07:23:05;;;;;;;3.55;1.90;;;23.30;44.40;;;21.55;51.64;96168.22;4932254;28;20050;-70
2022/08/12 07:25:34;;;;;;;3.10;1.83;;;23.50;44.20;;;21.70;51.36;96169.09;4916450;29;20126;-74
2022/08/12 07:28:11;;;;;;;4.82;2.05;;;23.60;43.80;;;21.86;50.01;96177.25;4931582;28;20411;-73
2022/08/12 07:30:38;;;;;;;5.32;2.15;;;23.80;43.00;;;21.98;50.59;96180.56;4960751;28;20032;-70
2022/08/12 07:33:07;;;;;;;4.32;1.70;;;23.90;42.90;;;22.11;50.49;96179.28;4931358;28;20032;-65
2022/08/12 07:35:34;;;;;;;4.68;1.95;;;24.10;43.10;;;22.24;50.10;96174.28;4933997;28;20035;-66
2022/08/12 07:38:00;;;;;;;4.03;2.10;;;24.30;42.30;;;22.37;50.29;96173.00;4932878;28;20035;-61
2022/08/12 07:40:27;;;;;;;3.17;1.80;;;24.50;42.50;;;22.51;49.79;96168.78;4933460;29;20027;-69
2022/08/12 07:42:52;;;;;;;2.83;1.55;;;24.60;41.70;;;22.67;50.12;96177.69;4934014;29;20051;-66
2022/08/12 07:45:19;;;;;;;3.92;1.75;;;24.90;42.70;;;22.86;49.63;96183.41;4934712;29;20527;-61
2022/08/12 07:47:46;;;;;;;2.90;1.73;;;25.10;42.20;;;23.07;49.54;96186.91;4929546;28;20046;-72
2022/08/12 07:50:13;;;;;;;2.60;1.60;;;25.40;41.20;;;23.27;48.87;96175.41;4932752;28;20050;-71
2022/08/12 07:52:41;;;;;;;3.08;2.00;;;25.60;40.70;;;23.41;48.22;96181.88;4961471;28;20352;-70
2022/08/12 07:55:07;;;;;;;3.42;2.08;;;25.70;39.80;;;23.56;48.18;96173.84;4914164;29;20046;-71
2022/08/12 07:57:33;;;;;;;3.20;1.70;;;25.80;39.70;;;23.73;47.76;96178.91;4932399;28;20031;-62
2022/08/12 08:00:04;;;;;;;4.47;2.00;;;26.10;39.80;;;23.91;48.14;96181.06;4916603;28;20047;-72
2022/08/12 08:02:35;;;;;;;4.57;1.90;;;26.40;40.10;;;24.11;46.79;96169.47;4950311;28;20117;-70
2022/08/12 08:05:02;;;;;;;4.95;1.67;;;26.60;38.20;;;24.28;46.38;96177.22;4933757;28;20055;-67
2022/08/12 08:07:29;;;;;;;3.75;1.58;;;26.70;37.90;;;24.43;46.59;96177.97;4917031;29;20067;-68
2022/08/12 08:09:58;;;;;;;3.50;1.60;;;27.00;38.40;;;24.63;46.31;96176.28;4947539;28;20527;-66
2022/08/12 08:15:13;;;;;;;5.25;1.90;;;27.40;37.70;;;25.02;46.11;96174.50;4919428;28;20150;-68
2022/08/12 08:17:39;;;;;;;3.35;1.95;;;27.60;38.40;;;25.19;45.40;96173.31;4957918;28;20436;-68
2022/08/12 08:20:08;;;;;;;3.63;1.80;;;27.70;36.70;;;25.28;44.28;96177.03;4933706;28;20109;-67
2022/08/12 08:22:39;;;;;;;3.92;1.80;;;27.90;36.10;;;25.42;44.21;96172.63;4945982;28;20036;-67
2022/08/12 08:25:06;;;;;;;3.78;1.48;;;28.10;36.50;;;25.58;44.20;96166.03;4930625;28;20120;-71
2022/08/12 08:27:51;;;;;;;5.22;2.10;;;28.30;35.70;;;25.83;41.95;96154.25;4946130;28;20451;-70
2022/08/12 08:30:17;;;;;;;5.22;1.80;;;28.60;35.30;;;26.00;43.58;96169.97;4941161;28;20035;-68
2022/08/12 08:32:43;;;;;;;2.47;1.70;;;28.80;35.70;;;26.16;43.12;96171.41;4947705;28;20062;-68
2022/08/12 08:35:12;;;;;;;3.67;1.90;;;29.00;34.80;;;26.33;43.33;96176.38;4945343;28;20035;-61
2022/08/12 08:37:37;;;;;;;3.38;1.70;;;29.20;35.50;;;26.52;42.12;96168.34;4943461;28;20107;-67
2022/08/12 08:42:50;;;;;;;5.00;1.88;;;29.60;33.50;;;26.78;40.87;96172.34;4948493;28;20530;-70
2022/08/12 08:45:17;;;;;;;3.13;1.80;;;29.70;33.20;;;26.93;40.93;96165.09;4950259;28;20058;-68
2022/08/12 08:47:46;;;;;;;4.70;1.60;;;29.90;33.00;;;27.13;38.98;96171.03;4946895;28;20035;-70
2022/08/12 08:50:15;;;;;;;3.75;1.55;;;30.20;32.20;;;27.33;39.52;96177.25;4962613;28;20530;-61
2022/08/12 08:52:43;;;;;;;5.80;1.88;;;30.40;31.90;;;27.44;39.55;96174.09;4947996;28;20043;-61
2022/08/12 08:55:12;;;;;;;3.75;1.60;;;30.60;32.10;;;27.63;39.25;96170.59;4946237;28;20442;-69
2022/08/12 08:57:39;;;;;;;4.72;1.65;;;30.90;32.00;;;27.81;39.07;96167.03;4940305;28;20035;-61
2022/08/12 09:00:06;;;;;;;6.05;1.90;;;31.00;31.30;;;27.95;38.55;96173.28;4944851;28;20035;-62
2022/08/12 09:02:31;;;;;;;2.17;1.60;;;31.10;31.10;;;28.15;38.73;96166.69;4966336;28;20069;-62
2022/08/12 09:04:57;;;;;;;5.85;1.60;;;31.40;31.10;;;28.35;38.15;96173.66;4921518;28;20114;-63
2022/08/12 09:07:24;;;;;;;3.70;1.70;;;31.60;30.60;;;28.51;38.17;96169.53;4960528;28;20051;-62
2022/08/12 09:09:51;;;;;;;4.07;1.77;;;31.80;30.50;;;28.73;37.81;96165.28;4937468;28;20039;-62
2022/08/12 09:15:01;;;;;;;4.45;1.50;;;32.20;29.70;;;29.02;37.04;96165.78;4953414;28;20050;-61
2022/08/12 09:17:29;;;;;;;3.58;1.70;;;32.40;30.30;;;29.21;36.60;96162.94;4965975;28;20043;-61
2022/08/12 09:19:54;;;;;;;4.30;2.00;;;32.60;28.70;;;29.36;36.31;96162.56;4945719;28;20054;-61
2022/08/12 09:22:21;;;;;;;3.88;2.13;;;32.60;29.10;;;29.58;36.24;96159.06;4970603;28;20027;-63
2022/08/12 09:24:47;;;;;;;4.28;1.83;;;32.80;29.20;;;29.78;35.90;96165.91;4954010;28;20149;-63
2022/08/12 09:27:15;;;;;;;4.10;1.60;;;33.00;28.40;;;29.99;35.29;96169.69;4937488;28;20593;-63
2022/08/12 09:29:41;;;;;;;2.70;1.40;;;33.20;28.70;;;30.09;35.14;96161.31;4953930;28;20039;-68
2022/08/12 09:32:08;;;;;;;2.40;1.50;;;33.00;28.00;;;30.09;34.57;96157.78;4953991;28;20126;-63
2022/08/12 09:34:35;;;;;;;7.00;1.60;;;32.80;28.60;;;30.00;34.05;96159.66;4950190;28;20023;-71
2022/08/12 09:37:01;;;;;;;2.03;1.30;;;32.50;27.90;;;30.04;34.12;96166.06;4953624;28;20034;-69
2022/08/12 09:39:30;;;;;;;3.05;1.38;;;32.70;28.40;;;30.00;33.63;96159.66;4952586;28;20071;-68
2022/08/12 09:47:28;;;;;;;2.88;1.50;;;31.70;29.20;;;29.40;34.14;96160.03;4950172;28;20054;-66
2022/08/12 09:49:54;;;;;;;5.32;1.40;;;31.30;29.80;;;29.21;33.93;96171.84;4948792;28;20050;-66
2022/08/12 09:52:21;;;;;;;3.75;1.45;;;31.00;30.50;;;29.04;33.97;96166.28;4944538;28;20031;-65
2022/08/12 09:54:47;;;;;;;2.72;1.58;;;30.90;30.60;;;28.92;34.33;96166.00;4966292;28;20191;-66
2022/08/12 09:57:19;;;;;;;2.80;1.33;;;31.00;30.10;;;28.90;34.25;96160.09;4966833;28;20156;-70
2022/08/12 09:59:44;;;;;;;1.75;1.33;;;30.90;30.60;;;28.83;33.97;96159.69;4934982;28;20035;-70
2022/08/12 10:02:11;;;;;;;1.58;1.33;;;31.10;30.00;;;28.86;34.98;96164.50;4952450;28;20224;-70
2022/08/12 10:04:45;;;;;;;3.55;1.27;;;31.60;29.80;;;28.87;34.25;96158.78;4937876;29;20093;-70
2022/08/12 10:07:11;;;;;;;2.95;1.50;;;31.50;29.30;;;28.83;34.57;96154.25;4952338;28;20031;-70
2022/08/12 10:09:36;;;;;;;1.60;1.30;;;31.30;30.00;;;28.70;34.75;96155.06;4953211;28;20105;-70
2022/08/12 10:14:47;;;;;;;2.10;1.27;;;30.60;30.80;;;28.39;34.51;96144.88;4939990;28;20035;-71
2022/08/12 10:17:13;;;;;;;3.42;1.40;;;30.40;31.10;;;28.30;35.13;96142.09;4944284;28;20035;-70
2022/08/12 10:19:39;;;;;;;3.25;1.60;;;30.20;31.60;;;28.26;35.03;96153.78;4946473;28;20356;-72
2022/08/12 10:22:05;;;;;;;3.33;1.58;;;30.10;31.30;;;28.22;35.02;96153.56;4951217;28;20114;-72
2022/08/12 10:24:30;;;;;;;2.60;1.35;;;30.30;31.40;;;28.14;34.80;96156.19;4951879;28;20059;-69
2022/08/12 10:29:44;;;;;;;3.67;1.45;;;30.50;30.90;;;28.33;35.16;96146.09;4963615;28;20035;-69
2022/08/12 10:32:19;;;;;;;2.28;1.55;;;31.40;30.30;;;28.87;35.24;96142.53;4934628;28;20031;-69
2022/08/12 10:34:51;;;;;;;2.47;1.45;;;33.20;28.90;;;29.51;34.56;96145.97;4953028;28;20039;-70
2022/08/12 10:37:17;;;;;;;2.03;1.20;;;34.60;27.20;;;30.26;34.20;96141.59;4930064;28;20031;-69
2022/08/12 10:39:44;;;;;;;1.70;1.08;;;36.20;24.30;;;30.81;33.37;96130.28;4949372;28;20566;-68
2022/08/12 10:44:59;;;;;;;2.17;1.40;;;37.80;22.50;;;32.36;32.09;96123.03;4936759;28;20078;-67
2022/08/12 10:47:29;;;;;;;;;;;38.80;22.50;;;33.01;30.06;96132.59;4934177;29;20062;-68
2022/08/12 10:49:55;;;;;;;4.10;1.40;;;39.70;20.90;;;33.63;31.41;96131.78;4949002;28;19922;-69
2022/08/12 10:52:23;;;;;;;5.68;1.30;;;40.40;19.90;;;34.21;30.27;96118.97;4950488;28;20031;-68
2022/08/12 10:54:49;;;;;;;2.90;1.20;;;41.00;19.70;;;34.80;30.15;96118.50;4950187;28;20039;-67
2022/08/12 10:57:15;;;;;;;1.00;0.90;;;41.30;19.80;;;35.33;28.43;96119.31;4942783;28;20454;-68
2022/08/12 10:59:41;;;;;;;3.53;1.20;;;41.50;18.80;;;35.85;27.55;96114.53;4929996;28;20039;-70
2022/08/12 11:02:11;;;;;;;2.28;1.13;;;42.10;18.50;;;36.25;27.25;96121.03;4960009;28;20040;-70
2022/08/12 11:04:38;;;;;;;2.75;1.05;;;42.50;18.00;;;36.62;26.76;96113.31;4944957;28;20046;-68
2022/08/12 11:07:04;;;;;;;2.53;0.80;;;42.60;17.50;;;37.07;26.05;96113.56;4946903;28;20039;-70
2022/08/12 11:09:30;;;;;;;1.45;0.90;;;43.10;17.30;;;37.48;24.97;96111.28;4965611;28;20062;-67
2022/08/12 11:11:56;;;;;;;3.53;0.95;;;43.10;17.00;;;37.84;24.69;96103.75;4948708;28;20059;-67
2022/08/12 11:14:31;;;;;;;1.10;0.80;;;43.20;17.10;;;38.11;24.40;96105.41;4933681;28;20043;-70
2022/08/12 11:16:58;;;;;;;3.00;1.00;;;43.40;16.70;;;38.34;23.75;96107.38;4948152;28;20035;-70
2022/08/12 11:19:25;;;;;;;2.25;0.70;;;43.70;16.50;;;38.46;23.23;96099.69;4912729;28;20056;-67
2022/08/12 11:21:51;;;;;;;1.80;0.80;;;43.40;15.70;;;38.61;22.98;96101.50;4956844;28;20521;-67
2022/08/12 11:24:17;;;;;;;2.30;1.20;;;43.70;15.90;;;38.68;22.07;96103.59;4933980;28;20494;-66
2022/08/12 11:26:43;;;;;;;1.25;0.82;;;43.60;15.10;;;38.76;21.99;96085.25;4968869;28;20086;-66
2022/08/12 11:29:08;;;;;;;1.13;0.68;;;43.60;15.70;;;38.79;21.83;96090.00;4932241;28;20035;-66
2022/08/12 11:31:34;;;;;;;1.13;0.60;;;43.70;15.90;;;38.99;21.74;96082.44;4949659;28;20094;-68
2022/08/12 11:34:00;;;;;;;2.45;1.08;;;44.00;15.60;;;39.11;21.49;96079.44;4948373;28;20055;-67
2022/08/12 11:36:26;;;;;;;5.43;0.90;;;44.00;15.20;;;39.31;21.51;96075.38;4950701;28;20050;-67
2022/08/12 11:38:52;;;;;;;1.75;0.98;;;44.40;15.50;;;39.52;21.10;96082.31;4948916;28;20496;-67
2022/08/12 11:41:21;;;;;;;3.00;0.82;;;44.40;15.10;;;39.56;20.31;96077.63;4949064;28;20066;-68
2022/08/12 11:43:46;;;;;;;1.00;0.55;;;44.60;15.10;;;39.67;20.74;96070.28;4934273;29;20035;-67
2022/08/12 11:46:12;;;;;;;1.63;0.80;;;44.70;14.60;;;39.87;21.09;96070.88;4948630;28;20420;-68
2022/08/12 11:48:38;;;;;;;1.10;0.70;;;45.10;15.50;;;40.28;20.76;96074.38;4946888;28;20059;-66
2022/08/12 11:51:06;;;;;;;4.43;1.30;;;45.50;15.00;;;40.61;20.36;96066.00;4964704;28;20031;-66
2022/08/12 11:53:32;;;;;;;2.80;1.47;;;45.50;15.00;;;40.74;20.71;96060.13;4951702;28;20067;-66
2022/08/12 11:55:58;;;;;;;2.90;1.08;;;45.50;15.00;;;40.92;20.08;96058.28;4932331;28;20045;-66
2022/08/12 11:58:24;;;;;;;1.42;0.68;;;45.90;14.80;;;41.01;19.49;96050.47;4947537;28;20055;-66
2022/08/12 12:00:50;;;;;;;0.75;0.70;;;45.90;13.60;;;41.00;19.84;96054.41;4940050;28;20075;-66
2022/08/12 12:03:15;;;;;;;3.42;0.90;;;46.00;14.60;;;41.29;19.85;96058.88;4948872;28;20070;-68
2022/08/12 12:05:41;;;;;;;1.23;0.60;;;46.30;14.70;;;41.51;19.01;96067.22;4955446;28;20054;-66
2022/08/12 12:08:07;;;;;;;1.27;0.60;;;46.30;14.00;;;41.67;19.07;96058.63;4932506;29;20081;-66
2022/08/12 12:10:32;;;;;;;1.45;0.73;;;46.10;14.00;;;41.74;18.80;96047.56;4948411;28;20036;-67
2022/08/12 12:12:58;;;;;;;2.33;0.65;;;46.30;13.60;;;41.35;18.68;96050.22;4934236;28;20073;-67
2022/08/12 12:15:24;;;;;;;3.53;0.80;;;44.10;14.20;;;40.60;19.07;96052.59;4949957;28;20039;-66